CEB312 RPVE-RPLL
Flight info
| Callsign | CEB312 |
|---|---|
| Flight time | 0h 55m |
| Altitude | 24000 |
| Route | MINOR8A MINOR B473 LAIYA LAIYA3R |
| Aircraft | A20N/M-SDE2E3FGHIRWXY/LB1 |
Departure
| Time | 2026-04-21 14:03 |
|---|---|
| Airport | Godofredo P. Ramos Airport (RPVE) |
Arrival
| Time | 2026-04-21 14:58 |
|---|---|
| Airport | Ninoy Aquino International Airport (RPLL) |
| Time | Latitude | Longitude | Altitude | Speed | Heading |
|---|---|---|---|---|---|
| 2026-04-21 13:42 | 11.92710 | 121.96437 | 41 ft | 0 kts | 154° |
| 2026-04-21 13:54 | 11.92721 | 121.96432 | 42 ft | 2 kts | 154° |
| 2026-04-21 13:55 | 11.92735 | 121.96427 | 39 ft | 2 kts | 185° |
| 2026-04-21 13:55 | 11.92749 | 121.96431 | 42 ft | 2 kts | 220° |
| 2026-04-21 13:55 | 11.92754 | 121.96435 | 39 ft | 0 kts | 236° |
| 2026-04-21 13:58 | 11.92746 | 121.96421 | 38 ft | 9 kts | 241° |
| 2026-04-21 13:58 | 11.92688 | 121.96302 | 42 ft | 23 kts | 242° |
| 2026-04-21 13:58 | 11.92662 | 121.96253 | 42 ft | 0 kts | 242° |
| 2026-04-21 13:59 | 11.92656 | 121.96241 | 42 ft | 6 kts | 245° |
| 2026-04-21 13:59 | 11.92688 | 121.96183 | 41 ft | 16 kts | 328° |
| 2026-04-21 14:00 | 11.92788 | 121.96117 | 32 ft | 20 kts | 298° |
| 2026-04-21 14:00 | 11.92747 | 121.95984 | 34 ft | 21 kts | 245° |
| 2026-04-21 14:00 | 11.92678 | 121.95837 | 34 ft | 24 kts | 243° |
| 2026-04-21 14:00 | 11.92595 | 121.95676 | 33 ft | 27 kts | 243° |
| 2026-04-21 14:01 | 11.92505 | 121.95497 | 32 ft | 30 kts | 243° |
| 2026-04-21 14:01 | 11.92408 | 121.95302 | 32 ft | 32 kts | 243° |
| 2026-04-21 14:01 | 11.92297 | 121.95104 | 33 ft | 32 kts | 230° |
| 2026-04-21 14:01 | 11.92250 | 121.95018 | 32 ft | 8 kts | 310° |
| 2026-04-21 14:02 | 11.92277 | 121.95045 | 34 ft | 8 kts | 63° |
| 2026-04-21 14:02 | 11.92412 | 121.95313 | 32 ft | 89 kts | 63° |
| 2026-04-21 14:02 | 11.92818 | 121.96120 | 66 ft | 160 kts | 63° |
| 2026-04-21 14:03 | 11.94002 | 121.98421 | 1259 ft | 203 kts | 62° |
| 2026-04-21 14:03 | 11.94719 | 121.99769 | 1918 ft | 223 kts | 62° |
| 2026-04-21 14:03 | 11.95453 | 122.01178 | 2878 ft | 224 kts | 65° |
| 2026-04-21 14:03 | 11.96254 | 122.02505 | 4106 ft | 220 kts | 52° |
| 2026-04-21 14:04 | 11.97447 | 122.03518 | 5026 ft | 231 kts | 31° |
| 2026-04-21 14:04 | 11.98936 | 122.04271 | 5780 ft | 248 kts | 29° |
| 2026-04-21 14:04 | 12.00547 | 122.05074 | 6348 ft | 269 kts | 28° |
| 2026-04-21 14:04 | 12.02256 | 122.05929 | 7167 ft | 276 kts | 28° |
| 2026-04-21 14:05 | 12.04006 | 122.06810 | 8070 ft | 282 kts | 28° |
| 2026-04-21 14:05 | 12.05772 | 122.07702 | 8960 ft | 286 kts | 28° |
| 2026-04-21 14:05 | 12.07571 | 122.08612 | 9872 ft | 291 kts | 27° |
| 2026-04-21 14:05 | 12.09407 | 122.09542 | 10528 ft | 304 kts | 27° |
| 2026-04-21 14:06 | 12.11376 | 122.10541 | 10829 ft | 328 kts | 27° |
| 2026-04-21 14:06 | 12.13509 | 122.11623 | 11175 ft | 347 kts | 27° |
| 2026-04-21 14:06 | 12.15679 | 122.12722 | 11905 ft | 352 kts | 27° |
| 2026-04-21 14:06 | 12.17886 | 122.13840 | 12639 ft | 357 kts | 27° |
| 2026-04-21 14:07 | 12.20120 | 122.14972 | 13345 ft | 362 kts | 27° |
| 2026-04-21 14:07 | 12.22399 | 122.16128 | 14014 ft | 367 kts | 26° |
| 2026-04-21 14:07 | 12.24694 | 122.17292 | 14659 ft | 370 kts | 26° |
| 2026-04-21 14:07 | 12.27013 | 122.18468 | 15279 ft | 374 kts | 26° |
| 2026-04-21 14:08 | 12.29359 | 122.19658 | 15916 ft | 378 kts | 26° |
| 2026-04-21 14:08 | 12.31723 | 122.20857 | 16535 ft | 381 kts | 26° |
| 2026-04-21 14:08 | 12.34198 | 122.21855 | 17124 ft | 385 kts | 12° |
| 2026-04-21 14:08 | 12.36855 | 122.22082 | 17705 ft | 387 kts | 355° |
| 2026-04-21 14:09 | 12.39483 | 122.21493 | 18279 ft | 390 kts | 338° |
| 2026-04-21 14:09 | 12.41859 | 122.20173 | 18755 ft | 393 kts | 326° |
| 2026-04-21 14:09 | 12.44143 | 122.18559 | 19236 ft | 397 kts | 324° |
| 2026-04-21 14:09 | 12.46387 | 122.16929 | 19723 ft | 401 kts | 323° |
| 2026-04-21 14:10 | 12.48689 | 122.15273 | 20219 ft | 404 kts | 324° |
| 2026-04-21 14:10 | 12.51002 | 122.13634 | 20704 ft | 408 kts | 324° |
| 2026-04-21 14:10 | 12.53352 | 122.11988 | 21192 ft | 411 kts | 324° |
| 2026-04-21 14:10 | 12.55745 | 122.10322 | 21664 ft | 415 kts | 324° |
| 2026-04-21 14:11 | 12.58141 | 122.08657 | 22139 ft | 419 kts | 324° |
| 2026-04-21 14:11 | 12.60563 | 122.06975 | 22596 ft | 422 kts | 324° |
| 2026-04-21 14:11 | 12.62982 | 122.05294 | 23071 ft | 425 kts | 324° |
| 2026-04-21 14:11 | 12.65479 | 122.03557 | 23528 ft | 429 kts | 324° |
| 2026-04-21 14:12 | 12.67957 | 122.01833 | 23687 ft | 431 kts | 324° |
| 2026-04-21 14:12 | 12.70422 | 122.00118 | 23780 ft | 431 kts | 324° |
| 2026-04-21 14:12 | 12.72904 | 121.98391 | 23866 ft | 431 kts | 324° |
| 2026-04-21 14:12 | 12.75398 | 121.96655 | 23926 ft | 432 kts | 324° |
| 2026-04-21 14:13 | 12.77869 | 121.94934 | 23931 ft | 432 kts | 324° |
| 2026-04-21 14:13 | 12.80364 | 121.93196 | 23939 ft | 432 kts | 324° |
| 2026-04-21 14:13 | 12.82840 | 121.91471 | 23937 ft | 431 kts | 324° |
| 2026-04-21 14:13 | 12.85309 | 121.89750 | 23938 ft | 431 kts | 323° |
| 2026-04-21 14:14 | 12.87792 | 121.88019 | 23938 ft | 431 kts | 323° |
| 2026-04-21 14:14 | 12.90269 | 121.86291 | 23801 ft | 431 kts | 323° |
| 2026-04-21 14:14 | 12.92752 | 121.84560 | 23591 ft | 430 kts | 323° |
| 2026-04-21 14:14 | 12.95233 | 121.82829 | 23345 ft | 428 kts | 323° |
| 2026-04-21 14:15 | 12.97677 | 121.81124 | 23103 ft | 426 kts | 323° |
| 2026-04-21 14:15 | 13.00105 | 121.79429 | 22841 ft | 424 kts | 324° |
| 2026-04-21 14:15 | 13.02531 | 121.77735 | 22579 ft | 422 kts | 324° |
| 2026-04-21 14:15 | 13.04968 | 121.76032 | 22338 ft | 421 kts | 324° |
| 2026-04-21 14:16 | 13.07376 | 121.74350 | 22093 ft | 419 kts | 324° |
| 2026-04-21 14:16 | 13.09799 | 121.72658 | 21842 ft | 417 kts | 324° |
| 2026-04-21 14:16 | 13.12169 | 121.71002 | 21599 ft | 415 kts | 324° |
| 2026-04-21 14:16 | 13.14548 | 121.69338 | 21358 ft | 414 kts | 324° |
| 2026-04-21 14:17 | 13.16946 | 121.67662 | 21116 ft | 412 kts | 324° |
| 2026-04-21 14:17 | 13.19310 | 121.66008 | 20879 ft | 410 kts | 324° |
| 2026-04-21 14:17 | 13.21659 | 121.64365 | 20646 ft | 409 kts | 324° |
| 2026-04-21 14:17 | 13.23996 | 121.62729 | 20412 ft | 408 kts | 324° |
| 2026-04-21 14:18 | 13.26336 | 121.61091 | 20184 ft | 406 kts | 324° |
| 2026-04-21 14:18 | 13.28643 | 121.59477 | 19953 ft | 405 kts | 324° |
| 2026-04-21 14:18 | 13.30991 | 121.57832 | 19720 ft | 404 kts | 324° |
| 2026-04-21 14:18 | 13.33321 | 121.56201 | 19492 ft | 402 kts | 324° |
| 2026-04-21 14:19 | 13.35611 | 121.54595 | 19262 ft | 400 kts | 324° |
| 2026-04-21 14:19 | 13.37899 | 121.52990 | 19043 ft | 399 kts | 325° |
| 2026-04-21 14:19 | 13.40203 | 121.51375 | 18818 ft | 397 kts | 325° |
| 2026-04-21 14:19 | 13.42472 | 121.49783 | 18597 ft | 396 kts | 325° |
| 2026-04-21 14:20 | 13.44747 | 121.48188 | 18386 ft | 394 kts | 325° |
| 2026-04-21 14:20 | 13.47020 | 121.46593 | 18158 ft | 393 kts | 325° |
| 2026-04-21 14:20 | 13.49259 | 121.45022 | 17897 ft | 391 kts | 325° |
| 2026-04-21 14:20 | 13.51505 | 121.43447 | 17643 ft | 390 kts | 325° |
| 2026-04-21 14:21 | 13.53760 | 121.41864 | 17394 ft | 388 kts | 326° |
| 2026-04-21 14:21 | 13.55973 | 121.40312 | 17150 ft | 387 kts | 326° |
| 2026-04-21 14:21 | 13.58194 | 121.38753 | 16899 ft | 385 kts | 326° |
| 2026-04-21 14:21 | 13.60406 | 121.37212 | 16656 ft | 384 kts | 326° |
| 2026-04-21 14:22 | 13.62600 | 121.35687 | 16411 ft | 382 kts | 326° |
| 2026-04-21 14:22 | 13.64802 | 121.34157 | 16174 ft | 381 kts | 326° |
| 2026-04-21 14:22 | 13.67008 | 121.32623 | 15956 ft | 379 kts | 326° |
| 2026-04-21 14:22 | 13.69178 | 121.31113 | 15832 ft | 378 kts | 326° |
| 2026-04-21 14:23 | 13.71361 | 121.29592 | 15690 ft | 379 kts | 326° |
| 2026-04-21 14:23 | 13.73552 | 121.28066 | 15409 ft | 379 kts | 326° |
| 2026-04-21 14:23 | 13.75720 | 121.26555 | 14953 ft | 377 kts | 326° |
| 2026-04-21 14:23 | 13.77871 | 121.25055 | 14496 ft | 372 kts | 326° |
| 2026-04-21 14:24 | 13.80005 | 121.23567 | 14051 ft | 367 kts | 326° |
| 2026-04-21 14:24 | 13.82116 | 121.22095 | 13578 ft | 363 kts | 326° |
| 2026-04-21 14:24 | 13.84246 | 121.20779 | 13071 ft | 357 kts | 338° |
| 2026-04-21 14:24 | 13.86623 | 121.20076 | 12580 ft | 352 kts | 347° |
| 2026-04-21 14:25 | 13.88970 | 121.19495 | 12094 ft | 348 kts | 347° |
| 2026-04-21 14:25 | 13.91327 | 121.18906 | 11605 ft | 345 kts | 347° |
| 2026-04-21 14:25 | 13.93640 | 121.18321 | 11132 ft | 342 kts | 347° |
| 2026-04-21 14:25 | 13.95940 | 121.17731 | 10661 ft | 339 kts | 347° |
| 2026-04-21 14:26 | 13.98222 | 121.17137 | 10199 ft | 336 kts | 347° |
| 2026-04-21 14:26 | 14.00446 | 121.16550 | 9722 ft | 326 kts | 347° |
| 2026-04-21 14:26 | 14.02619 | 121.15972 | 9211 ft | 316 kts | 347° |
| 2026-04-21 14:26 | 14.04697 | 121.15417 | 8980 ft | 299 kts | 347° |
| 2026-04-21 14:27 | 14.06686 | 121.14883 | 8715 ft | 292 kts | 347° |
| 2026-04-21 14:27 | 14.08622 | 121.14365 | 8312 ft | 290 kts | 347° |
| 2026-04-21 14:27 | 14.10543 | 121.13853 | 8183 ft | 285 kts | 347° |
| 2026-04-21 14:27 | 14.12448 | 121.13238 | 8047 ft | 286 kts | 335° |
| 2026-04-21 14:28 | 14.14041 | 121.12011 | 7653 ft | 292 kts | 318° |
| 2026-04-21 14:28 | 14.15509 | 121.10550 | 7288 ft | 290 kts | 317° |
| 2026-04-21 14:28 | 14.16477 | 121.09583 | 7040 ft | 290 kts | 317° |
| 2026-04-21 14:28 | 14.18403 | 121.07659 | 6559 ft | 287 kts | 317° |
| 2026-04-21 14:29 | 14.19670 | 121.06084 | 6187 ft | 286 kts | 297° |
| 2026-04-21 14:29 | 14.20322 | 121.04195 | 6051 ft | 276 kts | 287° |
| 2026-04-21 14:29 | 14.20865 | 121.02347 | 5944 ft | 264 kts | 287° |
| 2026-04-21 14:29 | 14.21387 | 121.00564 | 5844 ft | 253 kts | 287° |
| 2026-04-21 14:30 | 14.21877 | 120.98875 | 5717 ft | 245 kts | 287° |
| 2026-04-21 14:30 | 14.22368 | 120.97185 | 5423 ft | 244 kts | 287° |
| 2026-04-21 14:30 | 14.22857 | 120.95511 | 5101 ft | 245 kts | 287° |
| 2026-04-21 14:30 | 14.23344 | 120.93830 | 4818 ft | 244 kts | 287° |
| 2026-04-21 14:31 | 14.23831 | 120.92172 | 4537 ft | 243 kts | 287° |
| 2026-04-21 14:31 | 14.24325 | 120.90504 | 4264 ft | 242 kts | 287° |
| 2026-04-21 14:31 | 14.24814 | 120.88838 | 4014 ft | 242 kts | 287° |
| 2026-04-21 14:31 | 14.25299 | 120.87182 | 3760 ft | 242 kts | 287° |
| 2026-04-21 14:32 | 14.25773 | 120.85536 | 3567 ft | 238 kts | 287° |
| 2026-04-21 14:32 | 14.26313 | 120.83924 | 3489 ft | 242 kts | 299° |
| 2026-04-21 14:32 | 14.26995 | 120.83000 | 3442 ft | 238 kts | 321° |
| 2026-04-21 14:32 | 14.28738 | 120.81684 | 3218 ft | 234 kts | 327° |
| 2026-04-21 14:33 | 14.29632 | 120.81036 | 3020 ft | 233 kts | 327° |
| 2026-04-21 14:33 | 14.30939 | 120.80073 | 2761 ft | 229 kts | 327° |
| 2026-04-21 14:33 | 14.32209 | 120.79124 | 2668 ft | 218 kts | 327° |
| 2026-04-21 14:33 | 14.33406 | 120.78222 | 2597 ft | 206 kts | 328° |
| 2026-04-21 14:34 | 14.34645 | 120.77688 | 2481 ft | 180 kts | 5° |
| 2026-04-21 14:34 | 14.35866 | 120.78007 | 2496 ft | 187 kts | 27° |
| 2026-04-21 14:34 | 14.37050 | 120.78509 | 2492 ft | 185 kts | 27° |
| 2026-04-21 14:34 | 14.38137 | 120.79172 | 2489 ft | 177 kts | 50° |
| 2026-04-21 14:35 | 14.38851 | 120.80202 | 2490 ft | 176 kts | 62° |
| 2026-04-21 14:35 | 14.39441 | 120.81316 | 2496 ft | 177 kts | 64° |
| 2026-04-21 14:35 | 14.40046 | 120.82421 | 2491 ft | 177 kts | 63° |
| 2026-04-21 14:35 | 14.40657 | 120.83524 | 2494 ft | 176 kts | 63° |
| 2026-04-21 14:36 | 14.41262 | 120.84617 | 2497 ft | 177 kts | 63° |
| 2026-04-21 14:36 | 14.41876 | 120.85725 | 2490 ft | 176 kts | 63° |
| 2026-04-21 14:36 | 14.42449 | 120.86758 | 2491 ft | 158 kts | 63° |
| 2026-04-21 14:36 | 14.42963 | 120.87686 | 2489 ft | 139 kts | 63° |
| 2026-04-21 14:37 | 14.43416 | 120.88506 | 2458 ft | 136 kts | 64° |
| 2026-04-21 14:37 | 14.43890 | 120.89365 | 2303 ft | 135 kts | 63° |
| 2026-04-21 14:37 | 14.44364 | 120.90222 | 2132 ft | 138 kts | 62° |
| 2026-04-21 14:37 | 14.44840 | 120.91080 | 1957 ft | 134 kts | 63° |
| 2026-04-21 14:38 | 14.45277 | 120.91868 | 1788 ft | 124 kts | 63° |
| 2026-04-21 14:38 | 14.45715 | 120.92662 | 1626 ft | 127 kts | 63° |
| 2026-04-21 14:38 | 14.46153 | 120.93453 | 1454 ft | 126 kts | 62° |
| 2026-04-21 14:38 | 14.46598 | 120.94258 | 1296 ft | 133 kts | 63° |
| 2026-04-21 14:39 | 14.47046 | 120.95065 | 1126 ft | 127 kts | 63° |
| 2026-04-21 14:39 | 14.47487 | 120.95865 | 975 ft | 128 kts | 63° |
| 2026-04-21 14:39 | 14.47925 | 120.96663 | 834 ft | 134 kts | 63° |
| 2026-04-21 14:39 | 14.48444 | 120.97650 | 1010 ft | 182 kts | 62° |
| 2026-04-21 14:40 | 14.49148 | 120.98958 | 1210 ft | 230 kts | 62° |
| 2026-04-21 14:40 | 14.49979 | 121.00465 | 1510 ft | 236 kts | 61° |
| 2026-04-21 14:40 | 14.50783 | 121.01881 | 1766 ft | 224 kts | 60° |
| 2026-04-21 14:40 | 14.51583 | 121.03243 | 2003 ft | 224 kts | 60° |
| 2026-04-21 14:41 | 14.52182 | 121.04679 | 2474 ft | 209 kts | 84° |
| 2026-04-21 14:41 | 14.51959 | 121.06091 | 2915 ft | 202 kts | 114° |
| 2026-04-21 14:41 | 14.51286 | 121.07390 | 3151 ft | 205 kts | 117° |
| 2026-04-21 14:41 | 14.50418 | 121.08546 | 3348 ft | 212 kts | 142° |
| 2026-04-21 14:42 | 14.49122 | 121.09349 | 3859 ft | 219 kts | 147° |
| 2026-04-21 14:42 | 14.47876 | 121.10085 | 4096 ft | 199 kts | 147° |
| 2026-04-21 14:42 | 14.46657 | 121.10802 | 4039 ft | 204 kts | 147° |
| 2026-04-21 14:42 | 14.45397 | 121.11545 | 4171 ft | 218 kts | 147° |
| 2026-04-21 14:43 | 14.44046 | 121.12350 | 4672 ft | 223 kts | 148° |
| 2026-04-21 14:43 | 14.42738 | 121.13150 | 4868 ft | 220 kts | 147° |
| 2026-04-21 14:43 | 14.41310 | 121.13784 | 4974 ft | 229 kts | 170° |
| 2026-04-21 14:43 | 14.39727 | 121.13598 | 4997 ft | 234 kts | 202° |
| 2026-04-21 14:44 | 14.38445 | 121.12564 | 4999 ft | 240 kts | 233° |
| 2026-04-21 14:44 | 14.37550 | 121.11121 | 4889 ft | 238 kts | 237° |
| 2026-04-21 14:44 | 14.36695 | 121.09671 | 4683 ft | 234 kts | 237° |
| 2026-04-21 14:44 | 14.35869 | 121.08257 | 4565 ft | 222 kts | 237° |
| 2026-04-21 14:45 | 14.35099 | 121.06933 | 4457 ft | 212 kts | 237° |
| 2026-04-21 14:45 | 14.34346 | 121.05631 | 4196 ft | 212 kts | 237° |
| 2026-04-21 14:45 | 14.33597 | 121.04336 | 3949 ft | 212 kts | 237° |
| 2026-04-21 14:45 | 14.32844 | 121.03037 | 3697 ft | 210 kts | 237° |
| 2026-04-21 14:46 | 14.32108 | 121.01736 | 3525 ft | 207 kts | 237° |
| 2026-04-21 14:46 | 14.31526 | 121.00361 | 3498 ft | 216 kts | 261° |
| 2026-04-21 14:46 | 14.31257 | 120.98850 | 3492 ft | 211 kts | 243° |
| 2026-04-21 14:46 | 14.30561 | 120.97506 | 3495 ft | 212 kts | 237° |
| 2026-04-21 14:47 | 14.29815 | 120.96189 | 3504 ft | 225 kts | 237° |
| 2026-04-21 14:47 | 14.28979 | 120.94748 | 3497 ft | 240 kts | 237° |
| 2026-04-21 14:47 | 14.28138 | 120.93271 | 3495 ft | 240 kts | 237° |
| 2026-04-21 14:47 | 14.27298 | 120.91793 | 3492 ft | 238 kts | 237° |
| 2026-04-21 14:48 | 14.26449 | 120.90300 | 3489 ft | 240 kts | 237° |
| 2026-04-21 14:48 | 14.25617 | 120.88832 | 3493 ft | 238 kts | 237° |
| 2026-04-21 14:48 | 14.24896 | 120.87548 | 3497 ft | 239 kts | 237° |
| 2026-04-21 14:48 | 14.24063 | 120.86065 | 3491 ft | 240 kts | 241° |
| 2026-04-21 14:49 | 14.23701 | 120.84392 | 3494 ft | 241 kts | 274° |
| 2026-04-21 14:49 | 14.24206 | 120.82806 | 3494 ft | 238 kts | 307° |
| 2026-04-21 14:49 | 14.25415 | 120.81638 | 3497 ft | 238 kts | 327° |
| 2026-04-21 14:49 | 14.26756 | 120.80649 | 3390 ft | 234 kts | 327° |
| 2026-04-21 14:50 | 14.28084 | 120.79669 | 3114 ft | 234 kts | 327° |
| 2026-04-21 14:50 | 14.29393 | 120.78692 | 2800 ft | 234 kts | 327° |
| 2026-04-21 14:50 | 14.30707 | 120.77705 | 2554 ft | 231 kts | 327° |
| 2026-04-21 14:50 | 14.32030 | 120.76746 | 2491 ft | 234 kts | 336° |
| 2026-04-21 14:51 | 14.33569 | 120.76386 | 2495 ft | 223 kts | 10° |
| 2026-04-21 14:51 | 14.35014 | 120.76831 | 2497 ft | 217 kts | 27° |
| 2026-04-21 14:51 | 14.36405 | 120.77434 | 2488 ft | 216 kts | 27° |
| 2026-04-21 14:51 | 14.37673 | 120.78232 | 2499 ft | 209 kts | 52° |
| 2026-04-21 14:52 | 14.38469 | 120.79459 | 2491 ft | 209 kts | 64° |
| 2026-04-21 14:52 | 14.39146 | 120.80795 | 2496 ft | 209 kts | 64° |
| 2026-04-21 14:52 | 14.39861 | 120.82085 | 2494 ft | 210 kts | 63° |
| 2026-04-21 14:52 | 14.40586 | 120.83397 | 2495 ft | 208 kts | 62° |
| 2026-04-21 14:53 | 14.41303 | 120.84691 | 2492 ft | 206 kts | 62° |
| 2026-04-21 14:53 | 14.41978 | 120.85908 | 2507 ft | 186 kts | 63° |
| 2026-04-21 14:53 | 14.42586 | 120.87005 | 2493 ft | 166 kts | 63° |
| 2026-04-21 14:53 | 14.43124 | 120.87977 | 2489 ft | 149 kts | 63° |
| 2026-04-21 14:54 | 14.43613 | 120.88860 | 2359 ft | 136 kts | 63° |
| 2026-04-21 14:54 | 14.44083 | 120.89714 | 2210 ft | 139 kts | 62° |
| 2026-04-21 14:54 | 14.44556 | 120.90567 | 2040 ft | 136 kts | 63° |
| 2026-04-21 14:54 | 14.45019 | 120.91402 | 1880 ft | 127 kts | 63° |
| 2026-04-21 14:55 | 14.45444 | 120.92171 | 1726 ft | 127 kts | 63° |
| 2026-04-21 14:55 | 14.45884 | 120.92967 | 1562 ft | 125 kts | 62° |
| 2026-04-21 14:55 | 14.46316 | 120.93749 | 1393 ft | 129 kts | 62° |
| 2026-04-21 14:55 | 14.46769 | 120.94567 | 1227 ft | 128 kts | 62° |
| 2026-04-21 14:56 | 14.47202 | 120.95345 | 1055 ft | 127 kts | 63° |
| 2026-04-21 14:56 | 14.47636 | 120.96144 | 919 ft | 127 kts | 63° |
| 2026-04-21 14:56 | 14.48067 | 120.96961 | 743 ft | 132 kts | 64° |
| 2026-04-21 14:56 | 14.48526 | 120.97797 | 562 ft | 137 kts | 61° |
| 2026-04-21 14:57 | 14.49027 | 120.98643 | 381 ft | 136 kts | 62° |
| 2026-04-21 14:57 | 14.49493 | 120.99467 | 220 ft | 130 kts | 63° |
| 2026-04-21 14:57 | 14.49939 | 121.00276 | 103 ft | 124 kts | 63° |
| 2026-04-21 14:57 | 14.50337 | 121.00979 | 64 ft | 106 kts | 64° |
| 2026-04-21 14:58 | 14.50569 | 121.01426 | 52 ft | 54 kts | 60° |
| 2026-04-21 14:58 | 14.50742 | 121.01696 | 49 ft | 35 kts | 44° |
| 2026-04-21 14:58 | 14.50861 | 121.01783 | 38 ft | 7 kts | 8° |
| 2026-04-21 14:58 | 14.50896 | 121.01775 | 33 ft | 2 kts | 328° |
| 2026-04-21 14:59 | 14.50929 | 121.01747 | 30 ft | 0 kts | 320° |
| 2026-04-21 15:00 | 14.50931 | 121.01745 | 30 ft | 3 kts | 319° |
| 2026-04-21 15:00 | 14.50968 | 121.01707 | 29 ft | 13 kts | 314° |
| 2026-04-21 15:00 | 14.51063 | 121.01612 | 29 ft | 23 kts | 316° |
| 2026-04-21 15:00 | 14.51184 | 121.01483 | 30 ft | 21 kts | 313° |
| 2026-04-21 15:01 | 14.51219 | 121.01444 | 31 ft | 1 kts | 314° |
| 2026-04-21 15:01 | 14.51236 | 121.01431 | 31 ft | 5 kts | 326° |
| 2026-04-21 15:01 | 14.51278 | 121.01432 | 31 ft | 9 kts | 24° |
| 2026-04-21 15:01 | 14.51338 | 121.01497 | 32 ft | 16 kts | 53° |
| 2026-04-21 15:02 | 14.51423 | 121.01581 | 33 ft | 19 kts | 46° |
| 2026-04-21 15:02 | 14.51527 | 121.01675 | 33 ft | 21 kts | 45° |
| 2026-04-21 15:02 | 14.51636 | 121.01776 | 35 ft | 18 kts | 21° |
| 2026-04-21 15:02 | 14.51722 | 121.01744 | 35 ft | 9 kts | 292° |
| 2026-04-21 15:03 | 14.51680 | 121.01700 | 35 ft | 11 kts | 205° |
| 2026-04-21 15:03 | 14.51659 | 121.01691 | 35 ft | 0 kts | 202° |